메인 페이지
METAR-TAF:

METAR-TAF

공항 :

파리찰스 드골, 프랑스

파리 샤를 드 골 공항

위도: 49-01N, 경도: 002-32E, 고도: 118m

현재 날씨관측

예보는 21분 전, 13:30시(UTC)에 발표되었습니다.
남남동8kt동남동풍과 풍을 오가는
온도 5°C
습도 87%
기압 1018 hPa
시정: 7000m
고도 1500ft 상공 구름 보통
고도 2000ft 상공 구름 많음
약한비

METAR: LFPG 191330Z 16008KT 110V190 7000 -RA SCT015 BKN020 05/03 Q1018 NOSIG

시각: 14:51 (13:51 UTC)

예보

예보는 2 시간 51분 전, 11:00시(UTC)에 발표되었습니다.
예보 대상 시간: 19일 12시부터 20일 18시까지 (UTC)
5kt
시정: 6000m
고도 2500ft 상공 구름 많음
전환 중
19일 12시부터 19일 14시까지 (UTC)
고도 800ft 상공 구름 많음
일시적
19일 16시부터 20일 06시까지 (UTC)
시정: 3000m
고도 300ft 상공 구름 많음
약한비
확률 30% :
일시적
19일 22시부터 20일 03시까지 (UTC)
시정: 1500m
고도 200ft 상공 구름 많음
전환 중
20일 06시부터 20일 09시까지 (UTC)
고도 1600ft 상공 구름 많음
확률 40% :
일시적
20일 15시부터 20일 18시까지 (UTC)
시정: 4000m
고도 1200ft 상공 구름 많음
약한비

TAF: LFPG 191100Z 1912/2018 17005KT 6000 BKN025 BECMG 1912/1914 BKN008 TEMPO 1916/2006 3000 -RA BKN003 PROB30 TEMPO 1922/2003 1500 BKN002 BECMG 2006/2009 BKN016 PROB40 TEMPO 2015/2018 4000 -RA BKN012 TX06/2013Z TN03/2005Z

4,000개 이상의 공항 관측 자료 및 예보 (METAR 및 TAF 보고).

지도상에서 검색 가능한 기상관측소가 노란 점과 빨간 점으로 표시되어 있습니다.

기상관측소 명을 보려면 표시 위로 마우스를 이동하세요.

날씨 관측과 예보를 보려면 클릭하세요.

지도 변경 : 확대하려면 엑스 표시가 있는 녹색 버튼, 축소하려면 빼기 표시가 있는 녹색 버튼, 다음 페이지의 지도를 보려면 녹색 화살표를 클릭하세요.


METAR-TAF: